ADDS METAR Data INFO
IDs: Format: Raw Decoded Include TAF

Data at: 1615 UTC 25 Apr 2018

KT20 251555Z AUTO 21003KT 10SM CLR 22/18 A3008 RMK AO2 T02240176
KT20 251535Z AUTO 00000KT 10SM SCT004 21/20 A3009 RMK AO2 T02060199
KT20 251515Z AUTO 00000KT 7SM OVC002 19/19 A3009 RMK AO2 T01910191
KT20 251455Z AUTO 18003KT 3/4SM BR OVC002 19/19 A3009 RMK AO2 6//// T01860186
KT20 251435Z AUTO 00000KT 3/4SM BR 19/19 A3009 RMK AO2 T01850185
KT20 251415Z AUTO 00000KT 1/2SM FG OVC002 18/18 A3009 RMK AO2 T01820182
KT20 251355Z AUTO 18004KT 1/4SM FG OVC002 19/19 A3008 RMK AO2 T01850185
KT20 251335Z AUTO 00000KT M1/4SM FG OVC002 18/18 A3009 RMK AO2 T01760176
KT20 251315Z AUTO 00000KT M1/4SM FG OVC002 17/17 A3008 RMK AO2 T01670167
KT20 251255Z AUTO 00000KT 2SM BR OVC002 15/15 A3007 RMK AO2 T01510151
KT20 251235Z AUTO 00000KT 4SM BR BKN002 14/14 A3007 RMK AO2 T01440144
KT20 251215Z AUTO 00000KT 2SM BR BKN006 14/14 A3006 RMK AO2 T01380138
KT20 251155Z AUTO 00000KT 2 1/2SM BR SCT006 14/14 A3006 RMK AO2 T01400140 10181 20138
KT20 251135Z AUTO 00000KT 5SM BR CLR 15/15 A3006 RMK AO2 T01460146
KT20 251115Z AUTO 00000KT 7SM CLR 15/15 A3005 RMK AO2 T01480148
KT20 251055Z AUTO 10003KT 7SM CLR 15/15 A3004 RMK AO2 T01450145
KT20 251035Z AUTO 00000KT 5SM BR CLR 14/14 A3004 RMK AO2 T01410141
KT20 251015Z AUTO 00000KT 7SM CLR 15/15 A3004 RMK AO2 T01470147
KT20 250955Z AUTO 00000KT 5SM BR CLR 14/14 A3004 RMK AO2 LTG DSNT N T01420141
KT20 250935Z AUTO 00000KT 10SM CLR 15/15 A3004 RMK AO2 T01540152
KT20 250915Z AUTO 00000KT 10SM CLR 15/15 A3004 RMK AO2 T01520151
KT20 250855Z AUTO 36005KT 5SM BR CLR 15/14 A3005 RMK AO2 T01450142
KT20 250835Z AUTO 00000KT 10SM CLR 15/15 A3004 RMK AO2 T01500146
KT20 250815Z AUTO 00000KT 10SM CLR 16/16 A3004 RMK AO2 T01630156
KT20 250755Z AUTO 00000KT 10SM CLR 16/16 A3004 RMK AO2 T01630155
KT20 250735Z AUTO 00000KT 10SM CLR 17/15 A3004 RMK AO2 T01650154
KT20 250715Z AUTO 10003KT 10SM CLR 17/15 A3004 RMK AO2 T01700152
KT20 250655Z AUTO 00000KT 10SM CLR 17/15 A3004 RMK AO2 T01720150
KT20 250635Z AUTO 16004KT 10SM CLR 18/15 A3004 RMK AO2 T01750152
KT20 250615Z AUTO 14004KT 10SM CLR 18/15 A3005 RMK AO2 T01770152
KT20 250555Z AUTO 10004KT 10SM CLR 18/15 A3006 RMK AO2 T01820153 10281 20182 402960130
KT20 250535Z AUTO 12003KT 10SM CLR 19/15 A3006 RMK AO2 T01900153
KT20 250515Z AUTO 13003KT 10SM CLR 19/15 A3006 RMK AO2 T01920154
KT20 250455Z AUTO 00000KT 10SM CLR 20/16 A3005 RMK AO2 T01970155
KT20 250435Z AUTO 00000KT 10SM CLR 20/16 A3005 RMK AO2 T02000155
KT20 250415Z AUTO 15005KT 10SM CLR 20/16 A3004 RMK AO2 T02030157
KT20 250355Z AUTO 16004KT 10SM CLR 21/16 A3004 RMK AO2 T02130158
KT20 250335Z AUTO 16005KT 10SM CLR 22/16 A3003 RMK AO2 T02200160
KT20 250315Z AUTO 15006KT 10SM CLR 23/16 A3002 RMK AO2 T02250160
KT20 250255Z AUTO 14005KT 10SM CLR 23/16 A3001 RMK AO2 T02330159
KT20 250235Z AUTO 12005KT 10SM CLR 23/16 A3001 RMK AO2 T02340159
KT20 250215Z AUTO 14006KT 10SM CLR 23/16 A3000 RMK AO2 T02300157
KT20 250155Z AUTO 11003KT 10SM CLR 24/16 A2999 RMK AO2 T02390156
KT20 250135Z AUTO 12003KT 10SM CLR 24/16 A2999 RMK AO2 T02420157
KT20 250115Z AUTO 00000KT 10SM CLR 25/16 A2998 RMK AO2 T02520156
KT20 250055Z AUTO 09003KT 10SM CLR 25/16 A2997 RMK AO2 T02520161
KT20 250035Z AUTO 00000KT 10SM CLR 26/16 A2997 RMK AO2 T02630161
KT20 250015Z AUTO 09003KT 10SM CLR 27/15 A2997 RMK AO2 T02710154
KT20 242355Z AUTO 09003KT 10SM CLR 28/15 A2997 RMK AO2 T02830152 10296 20271
KT20 242335Z AUTO 10005KT 10SM CLR 29/15 A2997 RMK AO2 T02900151
KT20 242315Z AUTO 00000KT 10SM CLR 29/15 A2997 RMK AO2 T02880152
KT20 242255Z AUTO 10004KT 10SM CLR 29/15 A2997 RMK AO2 T02870147
KT20 242235Z AUTO 09006KT 10SM CLR 29/15 A2998 RMK AO2 T02880149
KT20 242215Z AUTO 08003KT 10SM CLR 28/14 A2999 RMK AO2 T02830140
KT20 242155Z AUTO 00000KT 10SM CLR 29/14 A2999 RMK AO2 T02910141
KT20 242135Z AUTO 00000KT 10SM CLR 29/14 A2999 RMK AO2 T02920141
KT20 242115Z AUTO 00000KT 10SM CLR 29/14 A3000 RMK AO2 T02910143
KT20 242055Z AUTO 12003KT 10SM CLR 29/14 A3001 RMK AO2 T02860139
KT20 242035Z AUTO 15005KT 10SM CLR 29/14 A3002 RMK AO2 T02910144
KT20 242015Z AUTO 12004KT 10SM CLR 28/14 A3003 RMK AO2 T02840137
KT20 241955Z AUTO 16003KT 10SM CLR 29/14 A3004 RMK AO2 T02860142
KT20 241935Z AUTO 16007KT 100V180 10SM CLR 28/14 A3005 RMK AO2 T02840144
KT20 241915Z AUTO 00000KT 10SM CLR 28/14 A3005 RMK AO2 T02810138
KT20 241855Z AUTO 00000KT 10SM CLR 28/14 A3006 RMK AO2 T02750140
KT20 241835Z AUTO 19005KT 10SM CLR 28/14 A3007 RMK AO2 T02770143
KT20 241815Z AUTO 18006KT 10SM CLR 28/14 A3007 RMK AO2 T02760137
KT20 241755Z AUTO 20006KT 10SM CLR 27/15 A3007 RMK AO2 T02740146 10274 20130
KT20 241735Z AUTO 18003KT 10SM CLR 27/14 A3008 RMK AO2 T02650141
KT20 241715Z AUTO 00000KT 10SM CLR 27/15 A3009 RMK AO2 T02650146
KT20 241655Z AUTO 00000KT 10SM CLR 26/14 A3009 RMK AO2 T02570144
KT20 241635Z AUTO 20004KT 10SM CLR 26/14 A3010 RMK AO2 T02550142
KT20 241615Z AUTO 00000KT 10SM CLR 25/14 A3010 RMK AO2 T02450135
KT20 241555Z AUTO 00000KT 10SM CLR 24/14 A3010 RMK AO2 T02410136
KT20 241535Z AUTO 19004KT 10SM CLR 24/14 A3010 RMK AO2 T02400141
KT20 241515Z AUTO 00000KT 10SM CLR 23/15 A3010 RMK AO2 T02320148
KT20 241455Z AUTO 00000KT 10SM CLR 22/14 A3010 RMK AO2 T02220144
KT20 241435Z AUTO 00000KT 10SM CLR 22/15 A3010 RMK AO2 T02160148
KT20 241415Z AUTO 00000KT 10SM CLR 21/15 A3010 RMK AO2 T02070149
KT20 241355Z AUTO 00000KT 10SM CLR 20/14 A3010 RMK AO2 T01950141
KT20 241335Z AUTO 00000KT 10SM CLR 18/15 A3009 RMK AO2 T01810145
KT20 241315Z AUTO 00000KT 10SM CLR 17/15 A3009 RMK AO2 T01670151
KT20 241255Z AUTO 00000KT 10SM CLR 15/14 A3008 RMK AO2 T01510141
KT20 241235Z AUTO 00000KT 10SM CLR 14/13 A3007 RMK AO2 T01350128
KT20 241215Z AUTO 00000KT 10SM CLR 13/12 A3007 RMK AO2 T01340124
KT20 241155Z AUTO 08003KT 10SM CLR 14/13 A3006 RMK AO2 T01350125 10174 20135
KT20 241135Z AUTO 08003KT 10SM CLR 14/13 A3005 RMK AO2 T01390126
KT20 241115Z AUTO 07003KT 10SM CLR 14/13 A3004 RMK AO2 T01400128
KT20 241055Z AUTO 08004KT 10SM CLR 14/13 A3004 RMK AO2 T01430127
KT20 241035Z AUTO 06003KT 10SM CLR 15/13 A3004 RMK AO2 T01460132
KT20 241015Z AUTO 00000KT 10SM CLR 14/13 A3003 RMK AO2 T01400127
KT20 240955Z AUTO 00000KT 10SM CLR 15/13 A3003 RMK AO2 T01460133
KT20 240935Z AUTO 00000KT 10SM CLR 14/13 A3003 RMK AO2 T01420132
KT20 240915Z AUTO 00000KT 10SM CLR 15/13 A3003 RMK AO2 T01470132
KT20 240855Z AUTO 00000KT 10SM CLR 15/14 A3002 RMK AO2 T01500135
KT20 240835Z AUTO 00000KT 10SM CLR 15/13 A3002 RMK AO2 T01480134
KT20 240815Z AUTO 00000KT 10SM CLR 15/13 A3003 RMK AO2 T01500132
KT20 240755Z AUTO 00000KT 10SM CLR 16/13 A3002 RMK AO2 T01590133
KT20 240735Z AUTO 00000KT 10SM CLR 16/13 A3003 RMK AO2 T01620134
KT20 240715Z AUTO 00000KT 10SM CLR 17/13 A3004 RMK AO2 T01650132
KT20 240655Z AUTO 20003KT 10SM CLR 17/13 A3004 RMK AO2 T01650130
KT20 240635Z AUTO 00000KT 10SM CLR 17/13 A3004 RMK AO2 T01700132
KT20 240615Z AUTO 20003KT 10SM CLR 17/13 A3004 RMK AO2 T01700132
KT20 240555Z AUTO 19004KT 10SM CLR 18/13 A3005 RMK AO2 T01750133 10265 20168 402760104
KT20 240535Z AUTO 18004KT 10SM CLR 18/14 A3004 RMK AO2 T01760135
KT20 240515Z AUTO 17005KT 10SM CLR 18/13 A3004 RMK AO2 T01800134
KT20 240455Z AUTO 16003KT 10SM CLR 17/14 A3004 RMK AO2 T01690135
KT20 240435Z AUTO 00000KT 10SM CLR 19/13 A3004 RMK AO2 T01860130